createdAt,value
2023-04-01T00:05:12.379Z,82.62
2023-04-01T00:10:32.799Z,82.75
2023-04-01T00:15:57.411Z,82.93
2023-04-01T00:21:19.830Z,82.96
2023-04-01T00:26:43.205Z,82.99
2023-04-01T00:32:03.729Z,83.24
2023-04-01T00:37:24.253Z,83.39
2023-04-01T00:42:45.038Z,83.31
2023-04-01T00:48:11.074Z,83.38
2023-04-01T00:53:33.499Z,83.43
2023-04-01T00:59:00.606Z,83.50
2023-04-01T01:04:30.528Z,83.55
2023-04-01T01:09:54.580Z,83.87
2023-04-01T01:15:25.762Z,83.69
2023-04-01T01:21:18.639Z,83.74
2023-04-01T01:26:52.503Z,83.46
2023-04-01T01:32:32.020Z,83.48
2023-04-01T01:37:59.453Z,83.76
2023-04-01T01:43:25.917Z,83.69
2023-04-01T01:48:48.880Z,83.65
2023-04-01T01:54:14.212Z,83.81
2023-04-01T01:59:38.633Z,83.61
2023-04-01T02:04:59.802Z,83.69
2023-04-01T02:10:25.919Z,83.67
2023-04-01T02:15:51.778Z,83.79
2023-04-01T02:21:14.298Z,83.60
2023-04-01T02:26:36.014Z,83.65
2023-04-01T02:31:56.927Z,83.71
2023-04-01T02:37:18.161Z,83.69
2023-04-01T02:42:39.059Z,83.55
2023-04-01T02:47:59.639Z,83.59
2023-04-01T02:53:21.461Z,83.64
2023-04-01T02:58:42.242Z,83.68
2023-04-01T03:04:03.263Z,83.67
2023-04-01T03:09:24.095Z,83.71
2023-04-01T03:14:44.615Z,83.86
2023-04-01T03:20:06.365Z,83.86
2023-04-01T03:25:27.907Z,84.06
2023-04-01T03:30:48.852Z,83.86
2023-04-01T03:36:09.828Z,83.78
2023-04-01T03:41:31.698Z,83.94
2023-04-01T03:46:53.885Z,83.79
2023-04-01T03:52:14.539Z,83.89
2023-04-01T03:57:35.657Z,84.02
2023-04-01T04:03:07.918Z,83.82
2023-04-01T04:08:30.325Z,83.82
2023-04-01T04:13:51.277Z,83.63
2023-04-01T04:19:12.294Z,83.75
2023-04-01T04:24:32.676Z,83.76
2023-04-01T04:29:59.880Z,83.60
2023-04-01T04:35:20.687Z,83.65
2023-04-01T04:40:42.714Z,83.63
2023-04-01T04:46:11.541Z,83.78
2023-04-01T04:51:35.030Z,83.67
2023-04-01T04:56:55.771Z,83.68
2023-04-01T05:02:18.315Z,83.42
2023-04-01T05:07:39.025Z,83.52
2023-04-01T05:12:59.645Z,83.25
2023-04-01T05:18:20.809Z,83.42
2023-04-01T05:23:41.521Z,83.09
2023-04-01T05:29:02.605Z,83.14
2023-04-01T05:34:23.760Z,83.09
2023-04-01T05:39:44.651Z,82.92
2023-04-01T05:45:06.491Z,82.77
2023-04-01T05:50:45.894Z,82.45
2023-04-01T05:56:07.815Z,82.54
2023-04-01T06:01:32.514Z,82.27
2023-04-01T06:06:53.017Z,82.01
2023-04-01T06:12:34.152Z,82.03
2023-04-01T06:18:21.996Z,81.83
2023-04-01T06:24:01.628Z,81.73
2023-04-01T06:29:51.100Z,81.88
2023-04-01T06:35:11.958Z,82.18
2023-04-01T06:41:20.499Z,82.73
2023-04-01T06:46:48.916Z,82.65
2023-04-01T06:52:45.535Z,82.72
2023-04-01T06:58:30.101Z,82.81
2023-04-01T07:04:06.171Z,82.67
2023-04-01T07:09:38.031Z,82.68
2023-04-01T07:15:47.198Z,82.71
2023-04-01T07:21:19.060Z,82.09
2023-04-01T07:26:40.727Z,82.11
2023-04-01T07:32:39.456Z,81.79
2023-04-01T07:38:18.700Z,81.75
2023-04-01T07:43:56.573Z,81.89
2023-04-01T07:49:45.346Z,81.59
2023-04-01T07:55:24.917Z,80.15
2023-04-01T08:01:10.439Z,79.98
2023-04-01T08:06:57.582Z,79.82
2023-04-01T08:12:56.164Z,79.40
2023-04-01T08:19:02.767Z,79.32
2023-04-01T08:24:47.727Z,79.42
2023-04-01T08:30:32.304Z,79.59
2023-04-01T08:35:58.872Z,79.71
2023-04-01T08:41:38.840Z,79.50
2023-04-01T08:47:43.244Z,79.29
2023-04-01T08:53:18.390Z,79.17
2023-04-01T08:58:50.791Z,79.14
2023-04-01T09:04:49.285Z,79.27
2023-04-01T09:10:33.818Z,79.37
2023-04-01T09:16:39.099Z,78.95
2023-04-01T09:22:23.160Z,78.69
2023-04-01T09:28:11.192Z,78.83
2023-04-01T09:34:05.782Z,78.70
2023-04-01T09:40:12.745Z,78.82
2023-04-01T09:46:04.418Z,78.49
2023-04-01T09:52:13.352Z,78.88
2023-04-01T09:58:12.213Z,78.62
2023-04-01T10:04:31.104Z,78.05
2023-04-01T10:10:04.670Z,77.89
2023-04-01T10:23:21.876Z,77.49
2023-04-01T10:29:26.554Z,78.05
2023-04-01T10:35:11.044Z,77.74
2023-04-01T10:40:47.493Z,77.58
2023-04-01T10:47:04.798Z,77.40
2023-04-01T10:52:47.176Z,77.16
2023-04-01T10:58:52.790Z,77.34
2023-04-01T11:04:58.422Z,77.18
2023-04-01T11:11:32.015Z,76.67
2023-04-01T11:17:31.483Z,76.90
2023-04-01T11:23:17.262Z,77.13
2023-04-01T11:28:48.818Z,77.22
2023-04-01T11:34:29.330Z,77.00
2023-04-01T11:40:20.039Z,77.03
2023-04-01T11:46:11.157Z,76.47
2023-04-01T11:51:51.858Z,76.52
2023-04-01T11:58:00.558Z,76.73
2023-04-01T12:03:39.878Z,77.07
2023-04-01T12:09:16.190Z,76.74
2023-04-01T12:15:02.136Z,76.65
2023-04-01T12:20:35.389Z,76.24
2023-04-01T12:26:01.494Z,75.58
2023-04-01T12:31:30.339Z,73.93
2023-04-01T12:37:03.872Z,73.50
2023-04-01T12:43:02.116Z,73.35
2023-04-01T12:48:54.923Z,73.59
2023-04-01T12:54:33.480Z,73.46
2023-04-01T13:00:16.805Z,73.75
2023-04-01T13:05:49.443Z,73.71
2023-04-01T13:11:18.606Z,73.73
2023-04-01T13:17:16.476Z,73.76
2023-04-01T13:23:01.328Z,73.94
2023-04-01T13:28:33.404Z,73.83
2023-04-01T13:34:13.237Z,74.21
2023-04-01T13:40:21.817Z,74.51
2023-04-01T13:46:26.878Z,74.80
2023-04-01T13:51:50.516Z,74.54
2023-04-01T13:57:44.325Z,74.36
2023-04-01T14:03:42.713Z,73.67
2023-04-01T14:09:28.953Z,73.13
2023-04-01T14:15:23.499Z,72.54
2023-04-01T14:20:55.621Z,72.46
2023-04-01T14:26:36.662Z,72.12
2023-04-01T14:32:09.139Z,71.67
2023-04-01T14:38:01.390Z,71.75
2023-04-01T14:43:46.936Z,71.97
2023-04-01T14:49:30.938Z,71.98
2023-04-01T14:54:53.505Z,71.75
2023-04-01T15:00:17.246Z,71.71
2023-04-01T15:06:04.219Z,71.04
2023-04-01T15:11:52.114Z,70.78
2023-04-01T15:17:22.007Z,70.71
2023-04-01T15:23:14.276Z,68.29
2023-04-01T15:28:45.267Z,68.20
2023-04-01T15:34:18.608Z,69.80
2023-04-01T15:39:52.794Z,69.32
2023-04-01T15:45:25.406Z,66.97
2023-04-01T15:51:24.124Z,65.29
2023-04-01T15:57:09.900Z,60.60
2023-04-01T16:03:08.934Z,64.39
2023-04-01T16:09:03.952Z,65.57
2023-04-01T16:14:36.707Z,65.46
2023-04-01T16:20:10.163Z,63.75
2023-04-01T16:25:42.930Z,63.07
2023-04-01T16:31:16.584Z,64.09
2023-04-01T16:36:46.948Z,65.94
2023-04-01T16:42:07.460Z,66.82
2023-04-01T16:47:36.432Z,67.25
2023-04-01T16:53:16.698Z,67.78
2023-04-01T16:58:58.638Z,67.90
2023-04-01T17:04:34.328Z,68.01
2023-04-01T17:10:15.958Z,67.95
2023-04-01T17:15:58.120Z,67.21
2023-04-01T17:22:02.374Z,67.51
2023-04-01T17:27:23.553Z,67.27
2023-04-01T17:33:04.614Z,66.86
2023-04-01T17:38:37.808Z,67.20
2023-04-01T17:44:13.789Z,66.87
2023-04-01T17:49:57.685Z,66.91
2023-04-01T17:55:40.912Z,66.62
2023-04-01T18:01:21.154Z,66.45
2023-04-01T18:07:11.006Z,66.70
2023-04-01T18:12:45.791Z,66.90
2023-04-01T18:18:12.664Z,66.93
2023-04-01T18:24:01.711Z,67.37
2023-04-01T18:29:23.931Z,67.51
2023-04-01T18:34:47.314Z,67.49
2023-04-01T18:40:26.311Z,67.48
2023-04-01T18:46:23.995Z,67.53
2023-04-01T18:51:58.179Z,67.69
2023-04-01T18:57:21.149Z,67.63
2023-04-01T19:02:46.369Z,67.54
2023-04-01T19:08:19.871Z,67.65
2023-04-01T19:13:59.109Z,67.53
2023-04-01T19:19:47.993Z,67.54
2023-04-01T19:25:23.907Z,67.37
2023-04-01T19:31:20.642Z,67.43
2023-04-01T19:36:53.870Z,67.52
2023-04-01T19:42:55.058Z,67.42
2023-04-01T19:48:39.651Z,67.35
2023-04-01T19:54:31.672Z,67.42
2023-04-01T20:00:08.172Z,67.35
2023-04-01T20:05:54.318Z,67.41
2023-04-01T20:11:43.170Z,67.34
2023-04-01T20:17:17.950Z,67.34
2023-04-01T20:22:44.316Z,67.46
2023-04-01T20:28:07.753Z,67.51
2023-04-01T20:33:53.068Z,67.48
2023-04-01T20:47:20.156Z,67.45
2023-04-01T20:52:50.515Z,67.42
2023-04-01T20:58:32.258Z,67.67
2023-04-01T21:03:56.094Z,67.50
2023-04-01T21:09:33.039Z,67.46
2023-04-01T21:15:04.971Z,67.51
2023-04-01T21:20:40.417Z,67.55
2023-04-01T21:26:16.678Z,67.31
2023-04-01T21:32:04.886Z,67.54
2023-04-01T21:38:00.326Z,67.53
2023-04-01T21:43:37.227Z,67.48
2023-04-01T21:49:21.071Z,67.39
2023-04-01T21:55:02.881Z,67.49
2023-04-01T22:00:33.289Z,67.29
2023-04-01T22:06:01.928Z,67.49
2023-04-01T22:11:33.612Z,67.47
2023-04-01T22:17:32.000Z,67.43
2023-04-01T22:23:19.226Z,67.37
2023-04-01T22:29:01.881Z,67.55
2023-04-01T22:34:34.955Z,67.33
2023-04-01T22:40:23.583Z,67.31
2023-04-01T22:45:49.899Z,67.44
2023-04-01T22:51:21.856Z,67.33
2023-04-01T22:56:49.443Z,67.35
2023-04-01T23:02:18.897Z,67.28
2023-04-01T23:08:01.437Z,67.29
2023-04-01T23:13:38.990Z,67.42
2023-04-01T23:19:33.298Z,67.34
2023-04-01T23:25:19.758Z,67.44
2023-04-01T23:30:40.822Z,67.42
2023-04-01T23:36:16.357Z,67.47
2023-04-01T23:41:36.855Z,67.58
2023-04-01T23:46:59.870Z,67.47
2023-04-01T23:52:29.124Z,67.50
2023-04-01T23:58:16.259Z,67.65
